createdAt,value
2018-05-15T00:00:48.693Z,95280.38
2018-05-15T00:03:16.942Z,95288.98
2018-05-15T00:05:45.375Z,95285.96
2018-05-15T00:08:14.029Z,95285.44
2018-05-15T00:10:42.509Z,95277.41
2018-05-15T00:13:10.439Z,95273.93
2018-05-15T00:15:38.451Z,95284.34
2018-05-15T00:18:06.383Z,95283.56
2018-05-15T00:20:34.262Z,95277.28
2018-05-15T00:23:02.256Z,95277.02
2018-05-15T00:25:30.634Z,95279.58
2018-05-15T00:27:59.044Z,95277.07
2018-05-15T00:30:27.678Z,95174.56
2018-05-15T00:32:56.078Z,95273.84
2018-05-15T00:35:24.285Z,95279.94
2018-05-15T00:37:52.741Z,95278.22
2018-05-15T00:40:20.943Z,95275.42
2018-05-15T00:42:49.605Z,95279.38
2018-05-15T00:45:17.929Z,95276.94
2018-05-15T00:47:46.259Z,95282.20
2018-05-15T00:50:14.583Z,95283.16
2018-05-15T00:52:42.783Z,95277.25
2018-05-15T00:55:23.320Z,95280.25
2018-05-15T00:57:51.641Z,95283.11
2018-05-15T01:00:20.756Z,95280.89
2018-05-15T01:02:49.306Z,95269.36
2018-05-15T01:05:17.853Z,95284.64
2018-05-15T01:07:46.367Z,95285.98
2018-05-15T01:10:14.852Z,95284.14
2018-05-15T01:12:43.147Z,95291.58
2018-05-15T01:15:11.504Z,95291.50
2018-05-15T01:17:40.197Z,95281.80
2018-05-15T01:20:08.975Z,95276.44
2018-05-15T01:22:37.467Z,95277.45
2018-05-15T01:25:05.739Z,95288.30
2018-05-15T01:27:33.966Z,95288.98
2018-05-15T01:30:02.281Z,95283.48
2018-05-15T01:32:30.467Z,95280.25
2018-05-15T01:34:58.947Z,95277.11
2018-05-15T01:37:27.280Z,95278.03
2018-05-15T01:39:55.635Z,95164.59
2018-05-15T01:42:24.176Z,95277.50
2018-05-15T01:44:52.502Z,95278.28
2018-05-15T01:47:21.206Z,95278.21
2018-05-15T01:49:49.718Z,95275.91
2018-05-15T01:52:19.014Z,95276.23
2018-05-15T01:54:47.874Z,95278.34
2018-05-15T01:57:16.432Z,95278.39
2018-05-15T01:59:45.195Z,95277.03
2018-05-15T02:02:13.441Z,95273.95
2018-05-15T02:04:41.639Z,95274.42
2018-05-15T02:07:10.097Z,95278.69
2018-05-15T02:09:38.403Z,95280.89
2018-05-15T02:12:06.721Z,95281.85
2018-05-15T02:14:35.143Z,95275.61
2018-05-15T02:17:03.601Z,95277.38
2018-05-15T02:19:31.807Z,95284.43
2018-05-15T02:22:00.167Z,95279.38
2018-05-15T02:24:28.383Z,95273.73
2018-05-15T02:26:56.922Z,95274.50
2018-05-15T02:29:25.262Z,95275.61
2018-05-15T02:31:53.364Z,95274.50
2018-05-15T02:34:21.952Z,95266.54
2018-05-15T02:36:50.465Z,95264.82
2018-05-15T02:39:18.928Z,95269.06
2018-05-15T02:41:47.178Z,95276.66
2018-05-15T02:44:15.378Z,95271.20
2018-05-15T02:46:44.037Z,95268.64
2018-05-15T02:49:12.225Z,95274.51
2018-05-15T02:51:40.694Z,95276.55
2018-05-15T02:54:09.276Z,95280.96
2018-05-15T02:56:37.568Z,95276.64
2018-05-15T02:59:05.938Z,95283.09
2018-05-15T03:01:34.035Z,95282.83
2018-05-15T03:04:02.426Z,95295.48
2018-05-15T03:06:30.757Z,95290.69
2018-05-15T03:08:59.139Z,95295.02
2018-05-15T03:11:27.742Z,95294.58
2018-05-15T03:13:56.225Z,95299.47
2018-05-15T03:16:24.759Z,95301.72
2018-05-15T03:18:53.183Z,95304.69
2018-05-15T03:21:21.654Z,95306.36
2018-05-15T03:23:50.239Z,95305.34
2018-05-15T03:26:18.738Z,95302.00
2018-05-15T03:28:47.015Z,95300.50
2018-05-15T03:31:15.276Z,95296.36
2018-05-15T03:33:43.843Z,95301.70
2018-05-15T03:36:12.286Z,95303.75
2018-05-15T03:38:40.823Z,95294.12
2018-05-15T03:41:09.591Z,95293.27
2018-05-15T03:43:37.934Z,95290.73
2018-05-15T03:46:06.149Z,95289.23
2018-05-15T03:48:34.450Z,95293.18
2018-05-15T03:51:02.804Z,95290.34
2018-05-15T03:53:31.071Z,95293.91
2018-05-15T03:55:59.054Z,95300.52
2018-05-15T03:58:27.003Z,95306.20
2018-05-15T04:01:06.780Z,95303.99
2018-05-15T04:03:46.677Z,95293.82
2018-05-15T04:09:26.913Z,95303.30
2018-05-15T04:11:54.967Z,95308.17
2018-05-15T04:14:23.005Z,95305.58
2018-05-15T04:16:50.962Z,95305.11
2018-05-15T04:19:18.948Z,95230.52
2018-05-15T04:21:46.942Z,95300.45
2018-05-15T04:24:14.930Z,95306.12
2018-05-15T04:26:42.907Z,95314.19
2018-05-15T04:29:10.977Z,95312.99
2018-05-15T04:31:39.040Z,95315.98
2018-05-15T04:34:07.051Z,95320.47
2018-05-15T04:36:35.365Z,95322.77
2018-05-15T04:39:03.480Z,95317.95
2018-05-15T04:41:31.474Z,95320.72
2018-05-15T04:43:59.598Z,95326.78
2018-05-15T04:46:27.602Z,95326.63
2018-05-15T04:48:55.685Z,95332.92
2018-05-15T04:51:23.727Z,95336.25
2018-05-15T04:53:51.786Z,95336.06
2018-05-15T04:56:19.790Z,95331.69
2018-05-15T04:58:47.818Z,95327.19
2018-05-15T05:01:15.847Z,95329.92
2018-05-15T05:03:43.844Z,95333.56
2018-05-15T05:06:11.907Z,95334.95
2018-05-15T05:08:39.867Z,95335.94
2018-05-15T05:11:07.893Z,95334.49
2018-05-15T05:13:35.909Z,95328.52
2018-05-15T05:16:03.915Z,95339.30
2018-05-15T05:18:31.956Z,95333.78
2018-05-15T05:21:00.055Z,95339.80
2018-05-15T05:23:28.051Z,95346.75
2018-05-15T05:25:56.027Z,95337.13
2018-05-15T05:28:24.025Z,95338.80
2018-05-15T05:30:52.023Z,95337.14
2018-05-15T05:33:20.943Z,95341.52
2018-05-15T05:35:49.032Z,95337.10
2018-05-15T05:38:17.211Z,95337.44
2018-05-15T05:40:45.209Z,95329.38
2018-05-15T05:43:13.233Z,95333.67
2018-05-15T05:45:41.167Z,95342.09
2018-05-15T05:48:09.186Z,95345.39
2018-05-15T05:50:37.253Z,95340.84
2018-05-15T05:53:05.319Z,95341.63
2018-05-15T05:55:33.412Z,95339.19
2018-05-15T05:58:01.569Z,95339.27
2018-05-15T06:00:29.622Z,95337.78
2018-05-15T06:02:57.632Z,95327.89
2018-05-15T06:05:25.601Z,95331.66
2018-05-15T06:07:53.629Z,95335.47
2018-05-15T06:10:21.691Z,95339.42
2018-05-15T06:12:49.671Z,95332.20
2018-05-15T06:15:17.700Z,95332.45
2018-05-15T06:17:45.723Z,95334.11
2018-05-15T06:20:13.764Z,95331.48
2018-05-15T06:22:41.783Z,95333.27
2018-05-15T06:25:09.759Z,95335.14
2018-05-15T06:27:37.788Z,95331.52
2018-05-15T06:30:05.783Z,95331.13
2018-05-15T06:32:33.851Z,95334.64
2018-05-15T06:35:01.860Z,95325.77
2018-05-15T06:37:29.886Z,95324.92
2018-05-15T06:39:58.180Z,95321.13
2018-05-15T06:42:26.217Z,95314.34
2018-05-15T06:44:54.216Z,95314.61
2018-05-15T06:47:26.087Z,95323.94
2018-05-15T06:49:54.110Z,95310.57
2018-05-15T06:52:22.141Z,95321.80
2018-05-15T06:54:50.197Z,95308.34
2018-05-15T06:57:18.154Z,95322.69
2018-05-15T06:59:46.243Z,95313.52
2018-05-15T07:02:14.259Z,95307.25
2018-05-15T07:04:42.278Z,95319.16
2018-05-15T07:07:10.269Z,95320.80
2018-05-15T07:09:38.293Z,95311.02
2018-05-15T07:12:06.358Z,95307.14
2018-05-15T07:14:34.425Z,95306.76
2018-05-15T07:17:02.508Z,95311.58
2018-05-15T07:19:30.552Z,95322.17
2018-05-15T07:21:58.642Z,95305.30
2018-05-15T07:24:26.590Z,95298.40
2018-05-15T07:26:54.579Z,95300.73
2018-05-15T07:29:22.623Z,95297.34
2018-05-15T07:31:50.661Z,95292.66
2018-05-15T07:34:18.721Z,95283.16
2018-05-15T07:36:46.739Z,95275.63
2018-05-15T07:39:14.672Z,95282.09
2018-05-15T07:41:43.212Z,95272.73
2018-05-15T07:44:11.264Z,95277.66
2018-05-15T07:46:39.231Z,95258.37
2018-05-15T07:49:07.218Z,95269.29
2018-05-15T07:51:35.213Z,95271.84
2018-05-15T07:54:03.263Z,95274.78
2018-05-15T07:56:31.337Z,95267.10
2018-05-15T07:58:59.300Z,95270.27
2018-05-15T08:01:27.322Z,95264.12
2018-05-15T08:03:55.401Z,95270.27
2018-05-15T08:06:23.431Z,95269.50
2018-05-15T08:08:51.425Z,95268.91
2018-05-15T08:11:19.442Z,95269.25
2018-05-15T08:13:47.458Z,95264.18
2018-05-15T08:16:15.567Z,95268.70
2018-05-15T08:18:43.491Z,95266.78
2018-05-15T08:21:11.583Z,95263.84
2018-05-15T08:23:39.638Z,95260.56
2018-05-15T08:26:07.629Z,95266.21
2018-05-15T08:28:35.761Z,95267.58
2018-05-15T08:31:03.830Z,95264.89
2018-05-15T08:33:31.834Z,95262.09
2018-05-15T08:35:59.968Z,95264.53
2018-05-15T08:38:28.036Z,95260.47
2018-05-15T08:40:56.088Z,95264.25
2018-05-15T08:43:24.591Z,95266.72
2018-05-15T08:45:52.567Z,95265.50
2018-05-15T08:48:21.769Z,95268.56
2018-05-15T08:50:49.802Z,95266.78
2018-05-15T08:53:17.866Z,95266.34
2018-05-15T08:55:45.908Z,95266.49
2018-05-15T08:58:13.910Z,95259.23
2018-05-15T09:00:41.972Z,95262.80
2018-05-15T09:03:10.042Z,95254.52
2018-05-15T09:05:38.062Z,95260.95
2018-05-15T09:08:06.127Z,95264.14
2018-05-15T09:10:34.162Z,95266.38
2018-05-15T09:13:03.175Z,95266.13
2018-05-15T09:15:31.242Z,95266.49
2018-05-15T09:17:59.317Z,95267.56
2018-05-15T09:20:27.419Z,95256.09
2018-05-15T09:22:55.452Z,95251.95
2018-05-15T09:25:23.532Z,95249.46
2018-05-15T09:27:51.539Z,95244.96
2018-05-15T09:30:19.584Z,95239.72
2018-05-15T09:32:47.872Z,95239.80
2018-05-15T09:35:15.956Z,95241.22
2018-05-15T09:37:43.987Z,95241.70
2018-05-15T09:40:12.075Z,95238.58
2018-05-15T09:42:40.190Z,95241.22
2018-05-15T09:45:08.615Z,95236.86
2018-05-15T09:47:36.640Z,95238.12
2018-05-15T09:50:04.866Z,95237.98
2018-05-15T09:52:32.999Z,95240.45
2018-05-15T09:55:01.100Z,95236.30
2018-05-15T09:57:32.716Z,95240.89
2018-05-15T10:00:00.763Z,95243.64
2018-05-15T10:02:28.760Z,95228.94
2018-05-15T10:04:56.783Z,95230.67
2018-05-15T10:07:24.778Z,95232.83
2018-05-15T10:09:53.665Z,95237.32
2018-05-15T10:12:21.720Z,95235.16
2018-05-15T10:14:50.106Z,95229.46
2018-05-15T10:17:18.181Z,95233.62
2018-05-15T10:19:46.189Z,95224.41
2018-05-15T10:22:14.326Z,95224.14
2018-05-15T10:24:42.397Z,95236.59
2018-05-15T10:27:10.459Z,95224.58
2018-05-15T10:29:38.517Z,95232.33
2018-05-15T10:32:06.527Z,95240.44
2018-05-15T10:34:34.597Z,95238.25
2018-05-15T10:37:02.615Z,95237.78
2018-05-15T10:39:30.650Z,95237.31
2018-05-15T10:41:58.827Z,95242.79
2018-05-15T10:44:26.893Z,95231.08
2018-05-15T10:46:55.390Z,95229.64
2018-05-15T10:49:23.495Z,95234.27
2018-05-15T10:51:51.557Z,95242.36
2018-05-15T10:54:19.617Z,95241.99
2018-05-15T10:56:47.644Z,95235.27
2018-05-15T10:59:15.863Z,95238.09
2018-05-15T11:01:43.950Z,95235.04
2018-05-15T11:04:16.195Z,95235.66
2018-05-15T11:06:44.279Z,95244.06
2018-05-15T11:09:12.367Z,95240.13
2018-05-15T11:11:40.428Z,95241.35
2018-05-15T11:14:08.455Z,95201.69
2018-05-15T11:16:36.526Z,95227.63
2018-05-15T11:22:23.095Z,95225.07
2018-05-15T11:24:51.955Z,95222.85
2018-05-15T11:27:20.003Z,95224.88
2018-05-15T11:29:49.175Z,95225.41
2018-05-15T11:32:17.250Z,95223.07
2018-05-15T11:34:45.289Z,95224.97
2018-05-15T11:37:13.345Z,95228.27
2018-05-15T11:39:41.391Z,95227.34
2018-05-15T11:42:09.489Z,95215.08
2018-05-15T11:44:37.547Z,95230.23
2018-05-15T11:47:05.998Z,95230.23
2018-05-15T11:49:37.398Z,95229.69
2018-05-15T11:52:13.458Z,95222.37
2018-05-15T11:54:43.030Z,95219.94
2018-05-15T11:57:13.107Z,95220.51
2018-05-15T11:59:41.811Z,95215.80
2018-05-15T12:02:09.869Z,95214.21
2018-05-15T12:04:37.914Z,95215.36
2018-05-15T12:07:05.966Z,95212.95
2018-05-15T12:09:34.104Z,95207.53
2018-05-15T12:12:02.103Z,95208.98
2018-05-15T12:14:30.216Z,95215.34
2018-05-15T12:16:58.246Z,95212.35
2018-05-15T12:19:26.230Z,95205.20
2018-05-15T12:21:54.157Z,95205.88
2018-05-15T12:24:22.188Z,95195.79
2018-05-15T12:26:50.201Z,95189.09
2018-05-15T12:29:18.300Z,95202.43
2018-05-15T12:31:46.303Z,95191.47
2018-05-15T12:34:14.289Z,95162.28
2018-05-15T12:36:42.320Z,95191.29
2018-05-15T12:39:10.389Z,95185.45
2018-05-15T12:41:38.539Z,95180.59
2018-05-15T12:44:06.631Z,95180.97
2018-05-15T12:46:34.683Z,95182.33
2018-05-15T12:49:03.113Z,95186.63
2018-05-15T12:51:31.103Z,95177.26
2018-05-15T12:53:59.224Z,95173.48
2018-05-15T12:56:27.243Z,95170.19
2018-05-15T12:58:55.265Z,95168.43
2018-05-15T13:01:23.256Z,95163.84
2018-05-15T13:03:51.292Z,95156.98
2018-05-15T13:06:19.382Z,95156.13
2018-05-15T13:08:47.442Z,95155.94
2018-05-15T13:11:15.515Z,95138.66
2018-05-15T13:13:43.547Z,95147.47
2018-05-15T13:16:11.567Z,95152.41
2018-05-15T13:18:39.728Z,95142.77
2018-05-15T13:21:07.700Z,95141.78
2018-05-15T13:23:35.738Z,95138.80
2018-05-15T13:26:03.820Z,95130.29
2018-05-15T13:28:31.851Z,95128.05
2018-05-15T13:31:00.015Z,95134.08
2018-05-15T13:33:28.051Z,95142.66
2018-05-15T13:35:56.069Z,95128.64
2018-05-15T13:38:24.127Z,95126.98
2018-05-15T13:40:52.216Z,95141.59
2018-05-15T13:43:20.250Z,95136.88
2018-05-15T13:45:48.469Z,95145.16
2018-05-15T13:48:16.565Z,95144.03
2018-05-15T13:50:44.747Z,95152.66
2018-05-15T13:53:12.823Z,95148.17
2018-05-15T13:55:40.888Z,95149.49
2018-05-15T13:58:08.944Z,95156.12
2018-05-15T14:00:37.068Z,95152.04
2018-05-15T14:03:05.030Z,95152.76
2018-05-15T14:05:33.110Z,95164.16
2018-05-15T14:08:01.141Z,95173.88
2018-05-15T14:10:29.153Z,95170.64
2018-05-15T14:12:57.189Z,95175.52
2018-05-15T14:15:25.227Z,95180.03
2018-05-15T14:17:53.227Z,95174.14
2018-05-15T14:20:21.219Z,95169.49
2018-05-15T14:22:49.332Z,95089.66
2018-05-15T14:25:17.375Z,95181.03
2018-05-15T14:27:45.416Z,95184.30
2018-05-15T14:30:13.436Z,95187.16
2018-05-15T14:32:41.517Z,95192.44
2018-05-15T14:35:09.528Z,95187.20
2018-05-15T14:37:37.629Z,95181.44
2018-05-15T14:40:05.630Z,95184.93
2018-05-15T14:42:45.404Z,95198.42
2018-05-15T14:47:43.750Z,95193.56
2018-05-15T14:50:11.718Z,95196.77
2018-05-15T14:52:41.428Z,95209.80
2018-05-15T14:55:12.421Z,95206.11
2018-05-15T14:57:40.489Z,95207.56
2018-05-15T15:00:08.523Z,95202.73
2018-05-15T15:02:36.546Z,95206.29
2018-05-15T15:05:04.591Z,95195.27
2018-05-15T15:07:32.599Z,95198.89
2018-05-15T15:10:00.697Z,95195.73
2018-05-15T15:12:28.738Z,95198.41
2018-05-15T15:14:56.734Z,95198.94
2018-05-15T15:17:24.816Z,95193.05
2018-05-15T15:19:52.788Z,95192.92
2018-05-15T15:22:20.911Z,95188.66
2018-05-15T15:24:48.921Z,95179.20
2018-05-15T15:27:16.978Z,95171.50
2018-05-15T15:29:44.992Z,95171.72
2018-05-15T15:32:13.540Z,95165.52
2018-05-15T15:34:41.616Z,95165.45
2018-05-15T15:37:09.669Z,95171.28
2018-05-15T15:39:37.629Z,95167.58
2018-05-15T15:42:05.701Z,95177.05
2018-05-15T15:44:33.712Z,95175.59
2018-05-15T15:47:01.690Z,95179.94
2018-05-15T15:49:29.719Z,95175.63
2018-05-15T15:51:57.777Z,95163.94
2018-05-15T15:54:26.024Z,95165.11
2018-05-15T15:56:54.043Z,95173.98
2018-05-15T15:59:22.044Z,95166.06
2018-05-15T16:01:50.096Z,95163.67
2018-05-15T16:04:18.057Z,95060.82
2018-05-15T16:06:46.076Z,95168.91
2018-05-15T16:09:14.102Z,95164.45
2018-05-15T16:11:42.156Z,95163.23
2018-05-15T16:14:10.172Z,95154.18
2018-05-15T16:16:38.233Z,95147.39
2018-05-15T16:19:06.275Z,95153.06
2018-05-15T16:21:34.320Z,95153.78
2018-05-15T16:24:02.347Z,95149.10
2018-05-15T16:26:30.376Z,95143.98
2018-05-15T16:28:58.430Z,95137.04
2018-05-15T16:31:26.470Z,95136.93
2018-05-15T16:33:54.498Z,95138.75
2018-05-15T16:36:22.544Z,95145.06
2018-05-15T16:38:50.577Z,95140.88
2018-05-15T16:41:18.605Z,95142.45
2018-05-15T16:43:46.721Z,95135.53
2018-05-15T16:46:14.763Z,95138.72
2018-05-15T16:48:42.735Z,95135.57
2018-05-15T16:51:10.714Z,95138.69
2018-05-15T16:53:38.701Z,95131.52
2018-05-15T16:56:07.032Z,95131.60
2018-05-15T16:58:35.037Z,95147.30
2018-05-15T17:01:03.029Z,95152.64
2018-05-15T17:03:30.950Z,95144.08
2018-05-15T17:05:58.896Z,95138.84
2018-05-15T17:08:26.947Z,95143.59
2018-05-15T17:10:54.986Z,95140.98
2018-05-15T17:13:22.990Z,95138.58
2018-05-15T17:15:50.938Z,95128.02
2018-05-15T17:18:18.893Z,95128.05
2018-05-15T17:20:46.911Z,95123.19
2018-05-15T17:23:14.962Z,95123.80
2018-05-15T17:25:42.971Z,95122.61
2018-05-15T17:28:10.918Z,95114.92
2018-05-15T17:30:38.928Z,95114.73
2018-05-15T17:33:06.979Z,95117.60
2018-05-15T17:35:34.968Z,95113.88
2018-05-15T17:38:03.078Z,95120.63
2018-05-15T17:40:31.135Z,95116.19
2018-05-15T17:42:59.052Z,95121.75
2018-05-15T17:45:27.054Z,95116.31
2018-05-15T17:47:54.995Z,95123.03
2018-05-15T17:50:22.997Z,95127.37
2018-05-15T17:52:51.075Z,95130.02
2018-05-15T17:55:19.058Z,95132.30
2018-05-15T17:57:47.634Z,95133.28
2018-05-15T18:00:15.649Z,95133.36
2018-05-15T18:02:43.651Z,95125.14
2018-05-15T18:05:11.639Z,95112.73
2018-05-15T18:07:39.678Z,95102.73
2018-05-15T18:10:07.693Z,95117.22
2018-05-15T18:12:35.707Z,95124.62
2018-05-15T18:15:03.729Z,95125.28
2018-05-15T18:17:31.793Z,95126.91
2018-05-15T18:19:59.860Z,95120.09
2018-05-15T18:22:27.934Z,95117.78
2018-05-15T18:24:55.959Z,95130.16
2018-05-15T18:27:24.075Z,95129.72
2018-05-15T18:29:52.026Z,95136.41
2018-05-15T18:32:20.077Z,95144.16
2018-05-15T18:34:48.185Z,95139.91
2018-05-15T18:37:16.213Z,95135.79
2018-05-15T18:39:44.324Z,95138.95
2018-05-15T18:42:12.372Z,95126.71
2018-05-15T18:44:40.360Z,95130.64
2018-05-15T18:47:08.356Z,95127.53
2018-05-15T18:49:36.416Z,95137.95
2018-05-15T18:52:04.509Z,95140.53
2018-05-15T18:54:32.576Z,95146.61
2018-05-15T18:57:00.594Z,95136.00
2018-05-15T18:59:28.878Z,95142.73
2018-05-15T19:01:56.890Z,95139.20
2018-05-15T19:04:24.855Z,95123.31
2018-05-15T19:06:52.960Z,95134.37
2018-05-15T19:09:20.965Z,95127.11
2018-05-15T19:11:49.001Z,95130.27
2018-05-15T19:14:16.984Z,95135.33
2018-05-15T19:16:45.029Z,95130.31
2018-05-15T19:19:13.082Z,95127.07
2018-05-15T19:21:41.116Z,95134.80
2018-05-15T19:24:09.135Z,95126.88
2018-05-15T19:26:37.158Z,95133.20
2018-05-15T19:29:05.175Z,95128.04
2018-05-15T19:31:38.096Z,95134.09
2018-05-15T19:34:11.890Z,95134.38
2018-05-15T19:36:45.420Z,95136.39
2018-05-15T19:39:13.477Z,95136.11
2018-05-15T19:41:41.547Z,95135.98
2018-05-15T19:44:10.498Z,95126.95
2018-05-15T19:46:38.597Z,95119.53
2018-05-15T19:49:06.593Z,95114.40
2018-05-15T19:51:34.630Z,95117.25
2018-05-15T19:54:02.596Z,95106.09
2018-05-15T19:56:30.636Z,95106.16
2018-05-15T19:58:58.662Z,95101.62
2018-05-15T20:01:26.964Z,95110.65
2018-05-15T20:03:55.006Z,95115.39
2018-05-15T20:06:23.113Z,95117.67
2018-05-15T20:08:51.157Z,95112.38
2018-05-15T20:11:19.243Z,95105.80
2018-05-15T20:13:47.327Z,95114.35
2018-05-15T20:16:15.375Z,95101.86
2018-05-15T20:18:43.458Z,95107.83
2018-05-15T20:21:11.501Z,95085.83
2018-05-15T20:23:39.544Z,95115.00
2018-05-15T20:26:07.603Z,95114.14
2018-05-15T20:28:35.615Z,95111.52
2018-05-15T20:31:03.573Z,95098.80
2018-05-15T20:33:31.666Z,95098.78
2018-05-15T20:35:59.661Z,95090.84
2018-05-15T20:38:27.744Z,95105.34
2018-05-15T20:40:55.756Z,95109.56
2018-05-15T20:43:23.812Z,95111.64
2018-05-15T20:45:51.827Z,95106.88
2018-05-15T20:48:19.855Z,95091.63
2018-05-15T20:50:47.930Z,95084.72
2018-05-15T20:53:15.887Z,95092.64
2018-05-15T20:55:43.926Z,95100.70
2018-05-15T20:58:11.919Z,95098.20
2018-05-15T21:00:40.008Z,95095.54
2018-05-15T21:03:08.203Z,95083.15
2018-05-15T21:05:36.162Z,95083.52
2018-05-15T21:08:04.186Z,95077.92
2018-05-15T21:10:32.216Z,95064.98
2018-05-15T21:13:00.270Z,95062.69
2018-05-15T21:15:28.362Z,95066.23
2018-05-15T21:17:56.364Z,95067.63
2018-05-15T21:20:24.319Z,95062.03
2018-05-15T21:22:52.297Z,95054.76
2018-05-15T21:25:20.322Z,95043.37
2018-05-15T21:27:49.205Z,95051.84
2018-05-15T21:30:17.207Z,95051.52
2018-05-15T21:32:45.257Z,95052.85
2018-05-15T21:35:13.581Z,95053.33
2018-05-15T21:37:41.902Z,95051.07
2018-05-15T21:40:09.972Z,95047.81
2018-05-15T21:42:38.040Z,95047.75
2018-05-15T21:45:06.068Z,95045.63
2018-05-15T21:47:34.135Z,95037.36
2018-05-15T21:50:02.193Z,95045.53
2018-05-15T21:52:30.166Z,95035.15
2018-05-15T21:54:58.349Z,95015.95
2018-05-15T21:57:26.576Z,95017.22
2018-05-15T21:59:54.596Z,95030.94
2018-05-15T22:02:22.669Z,95047.16
2018-05-15T22:04:51.099Z,95056.13
2018-05-15T22:07:19.139Z,95069.88
2018-05-15T22:09:47.170Z,95069.39
2018-05-15T22:12:26.887Z,95054.63
2018-05-15T22:15:06.583Z,94985.95
2018-05-15T22:17:46.826Z,95050.33
2018-05-15T22:20:26.747Z,95051.34
2018-05-15T22:22:54.305Z,95048.05
2018-05-15T22:25:22.415Z,95050.48
2018-05-15T22:27:50.415Z,95046.91
2018-05-15T22:30:18.416Z,95061.75
2018-05-15T22:32:46.447Z,95073.84
2018-05-15T22:35:14.438Z,95068.58
2018-05-15T22:37:42.475Z,95070.66
2018-05-15T22:40:10.419Z,95082.44
2018-05-15T22:42:38.465Z,95071.93
2018-05-15T22:45:06.553Z,95084.98
2018-05-15T22:47:34.611Z,95088.27
2018-05-15T22:50:02.638Z,95086.05
2018-05-15T22:52:33.009Z,95083.95
2018-05-15T22:55:00.999Z,95084.04
2018-05-15T22:57:29.032Z,95082.54
2018-05-15T22:59:57.048Z,95066.27
2018-05-15T23:02:25.105Z,95056.45
2018-05-15T23:04:53.222Z,95041.60
2018-05-15T23:07:21.238Z,95060.66
2018-05-15T23:09:49.263Z,95057.92
2018-05-15T23:12:17.279Z,95049.47
2018-05-15T23:14:45.303Z,95067.21
2018-05-15T23:17:13.370Z,95071.54
2018-05-15T23:19:41.841Z,95073.52
2018-05-15T23:22:10.216Z,95070.41
2018-05-15T23:24:38.264Z,95070.37
2018-05-15T23:27:06.773Z,95075.05
2018-05-15T23:29:35.754Z,95071.88
2018-05-15T23:32:04.305Z,95067.73
2018-05-15T23:34:33.047Z,95063.73
2018-05-15T23:37:01.627Z,95057.67
2018-05-15T23:39:30.295Z,95060.98
2018-05-15T23:41:59.004Z,95048.61
2018-05-15T23:44:27.357Z,95042.89
2018-05-15T23:46:55.400Z,95038.34
2018-05-15T23:49:23.459Z,95044.98
2018-05-15T23:51:51.771Z,95046.45
2018-05-15T23:54:20.241Z,95040.34
2018-05-15T23:56:48.625Z,95044.59
2018-05-15T23:59:16.921Z,95032.19
